Hudson, NY (12534)

5:35 AM EDT on September 02, 2015 (GMT -0400)
Dragonfly Farm | | Change Station
CLOSE
Current Station
Personal Weather Station
Location: Hudson, NY
Elevation: 184 ft
Nearby Weather Stations

Elev 184 ft 42.21 °N, 73.81 °W | Updated 14 minutes ago

Clear
Clear
59.6 °F
Feels Like 59.6 °F
N
0.0
Wind Variable Wind from South
Gusts 0.0 mph

Today
High -- | Low -- °F
--% Chance of Precip.
Yesterday
High -- | Low -- °F
Precip. -- in
6:21 AM 7:27 PM
Waning Gibbous, 82% visible
Pressure 30.04 in
Visibility 1.2 miles
Clouds Overcast 100 ft
Dew Point 59 °F
Humidity 97%
Rainfall 0.00 in
Snow Depth Not available.
UV 0 out of 12
Pollen 9.30 out of 12
Air Quality Not available.
Flu Activity Not available.
SPECI KPSF 020930Z AUTO 00000KT 1 1/4SM BR OVC001 13/13 A3004 RMK AO2 T01330128
Pressure 30.04 in
Visibility 1.2 miles
Clouds Overcast 100 ft
Dew Point 59 °F
Humidity 97%
Rainfall 0.00 in
Snow Depth Not available.
UV 0 out of 12
Pollen 9.30 out of 12
Air Quality Not available.
Flu Activity Not available.
SPECI KPSF 020930Z AUTO 00000KT 1 1/4SM BR OVC001 13/13 A3004 RMK AO2 T01330128

10-Day Weather Forecast

×

Almanac

Astronomy

Sep. 02, 2015 Rise Set
Actual Time
Civil Twilight
Nautical Twilight
Astronomical Twilight
Moon
Length of Visible Light
Length of Day
Tomorrow will be .
, % of the Moon is Illuminated

Today's Extremes

State Highs State Lows

Community

WunderPhotos

Upload Photos

1,851,730 photos uploaded!

WunderBlogs® & News

Nearby

Air Quality

  Air Quality AQ Index Pollutant
Not available.

Snow Depth

Station Depth Elevation

Earthquake Activity

City Distance Mag. Time & Date
Minimum magnitude displayed is 2.5.

Coastal Water Temperatures

Place Temperature

Stations

Nearby Weather Stations

Station Location Temp. Windchill Dew Point Humidity Wind Precip. Elev Updated Type